Time;durP1;ratioP1;P1;durP2;ratioP2;P2;SDS_P1;SDS_P2;PMS_P1;PMS_P2;Temp;Humidity;BMP_temperature;BMP_pressure;BME280_temperature;BME280_humidity;BME280_pressure;Samples;Min_cycle;Max_cycle;Signal;HPM_P1;HPM_P2
2022/02/16 00:02:11;;;;;;;1.23;1.13;;;5.00;99.90;;;;;;7419765;19;20333;-79
2022/02/16 00:04:37;;;;;;;1.50;1.40;;;4.90;99.90;;;;;;7419654;19;20344;-78
2022/02/16 00:07:03;;;;;;;1.42;1.40;;;5.00;99.90;;;;;;7420223;19;20292;-78
2022/02/16 00:09:29;;;;;;;1.42;1.33;;;4.90;99.90;;;;;;7417892;19;20356;-78
2022/02/16 00:11:55;;;;;;;1.00;1.00;;;5.00;99.90;;;;;;7419882;19;20324;-79
2022/02/16 00:14:20;;;;;;;1.48;1.38;;;5.00;99.90;;;;;;7418788;19;20290;-79
2022/02/16 00:16:48;;;;;;;1.38;1.27;;;5.00;99.90;;;;;;7419109;19;20372;-79
2022/02/16 00:19:13;;;;;;;1.30;1.20;;;4.90;99.90;;;;;;7419906;19;20324;-80
2022/02/16 00:21:39;;;;;;;1.23;1.13;;;5.00;99.90;;;;;;7420497;19;20301;-79
2022/02/16 00:24:05;;;;;;;1.23;1.20;;;5.10;99.90;;;;;;7419781;19;20333;-79
2022/02/16 00:26:31;;;;;;;1.63;1.40;;;4.90;99.90;;;;;;7420068;19;20333;-79
2022/02/16 00:28:57;;;;;;;1.40;1.30;;;4.90;99.90;;;;;;7418083;19;20344;-80
2022/02/16 00:31:23;;;;;;;1.50;1.40;;;5.00;99.90;;;;;;7419476;19;20337;-79
2022/02/16 00:33:49;;;;;;;1.40;1.30;;;5.00;99.90;;;;;;7417644;19;20330;-78
2022/02/16 00:36:14;;;;;;;1.60;1.47;;;5.00;99.90;;;;;;7419797;19;20327;-78
2022/02/16 00:38:41;;;;;;;1.60;1.25;;;5.00;99.90;;;;;;7417958;19;20337;-78
2022/02/16 00:41:07;;;;;;;1.23;1.20;;;5.00;99.90;;;;;;7416498;19;20319;-79
2022/02/16 00:43:33;;;;;;;2.23;1.40;;;5.00;99.90;;;;;;7415655;19;20361;-77
2022/02/16 00:45:58;;;;;;;1.90;1.40;;;5.00;99.90;;;;;;7418885;19;20334;-79
2022/02/16 00:48:24;;;;;;;1.90;1.50;;;5.10;99.90;;;;;;7419631;19;20325;-79
2022/02/16 00:50:50;;;;;;;1.50;1.07;;;5.00;99.90;;;;;;7418768;19;20325;-78
2022/02/16 00:53:16;;;;;;;1.52;1.42;;;5.00;99.90;;;;;;7417878;19;20305;-79
2022/02/16 00:55:42;;;;;;;1.40;1.30;;;5.00;99.90;;;;;;7420225;19;20358;-79
2022/02/16 00:58:08;;;;;;;1.57;1.37;;;5.10;99.90;;;;;;7417935;19;20356;-80
2022/02/16 01:00:35;;;;;;;1.50;1.40;;;5.00;99.90;;;;;;7418491;19;20349;-80
2022/02/16 01:03:02;;;;;;;1.20;1.20;;;4.90;99.90;;;;;;7395931;19;20341;-79
2022/02/16 01:05:28;;;;;;;1.38;1.27;;;5.00;99.90;;;;;;7418419;19;20331;-79
2022/02/16 01:07:54;;;;;;;1.50;1.30;;;5.10;99.90;;;;;;7418044;19;20297;-79
2022/02/16 01:10:19;;;;;;;2.03;1.47;;;5.10;99.90;;;;;;7416557;19;20313;-79
2022/02/16 01:12:50;;;;;;;1.40;1.30;;;5.00;99.90;;;;;;7416607;19;20344;-79
2022/02/16 01:15:16;;;;;;;1.70;1.40;;;5.00;99.90;;;;;;7416352;19;20329;-79
2022/02/16 01:17:43;;;;;;;1.45;1.35;;;5.00;99.90;;;;;;7417486;19;20356;-79
2022/02/16 01:20:19;;;;;;;1.38;1.27;;;4.90;99.90;;;;;;7415989;19;20320;-79
2022/02/16 01:22:54;;;;;;;1.10;1.10;;;5.00;99.90;;;;;;7416607;19;20357;-80
2022/02/16 01:25:20;;;;;;;1.33;1.23;;;4.90;99.90;;;;;;7418245;19;20347;-79
2022/02/16 01:27:46;;;;;;;1.50;1.40;;;5.00;99.90;;;;;;7418669;19;20341;-80
2022/02/16 01:30:14;;;;;;;2.50;1.30;;;5.00;99.90;;;;;;7415631;19;20369;-80
2022/02/16 01:32:49;;;;;;;2.50;1.35;;;5.10;99.90;;;;;;7418121;19;20336;-79
2022/02/16 01:35:20;;;;;;;1.50;1.20;;;4.90;99.90;;;;;;7417737;19;20332;-80
2022/02/16 01:37:49;;;;;;;1.40;1.30;;;4.90;99.90;;;;;;7415885;19;20345;-80
2022/02/16 01:40:15;;;;;;;1.77;1.30;;;5.00;99.90;;;;;;7416544;19;20357;-79
2022/02/16 01:42:45;;;;;;;1.15;1.15;;;5.00;99.90;;;;;;7417209;19;20332;-80
2022/02/16 01:45:28;;;;;;;1.40;1.30;;;5.00;99.90;;;;;;7416314;19;20365;-80
2022/02/16 01:47:55;;;;;;;3.45;1.60;;;5.00;99.90;;;;;;7419234;19;20317;-79
2022/02/16 01:50:21;;;;;;;1.45;1.35;;;5.00;99.90;;;;;;7416531;19;20340;-80
2022/02/16 01:52:47;;;;;;;1.15;1.15;;;5.00;99.90;;;;;;7423847;19;20764;-80
2022/02/16 01:55:13;;;;;;;2.65;1.23;;;5.00;99.90;;;;;;7425652;19;20325;-79
2022/02/16 01:57:41;;;;;;;1.23;1.13;;;5.00;99.90;;;;;;7423198;19;20316;-80
2022/02/16 02:00:11;;;;;;;1.30;1.20;;;5.00;99.90;;;;;;7422197;19;20345;-80
2022/02/16 02:02:42;;;;;;;1.97;1.40;;;5.10;99.90;;;;;;7424380;19;20348;-80
2022/02/16 02:05:18;;;;;;;1.25;1.20;;;5.20;99.90;;;;;;7421667;19;20337;-81
2022/02/16 02:07:45;;;;;;;1.30;1.20;;;5.20;99.90;;;;;;7403069;19;22097;-79
2022/02/16 02:10:12;;;;;;;1.23;1.17;;;5.10;99.90;;;;;;7422665;19;20342;-79
2022/02/16 02:12:48;;;;;;;1.10;1.10;;;5.10;99.90;;;;;;7422536;19;20349;-79
2022/02/16 02:15:22;;;;;;;1.48;1.17;;;5.10;99.90;;;;;;7343221;19;20333;-80
2022/02/16 02:18:06;;;;;;;1.00;1.00;;;5.20;99.90;;;;;;7400605;19;20345;-80
2022/02/16 02:20:33;;;;;;;3.88;1.27;;;5.20;99.90;;;;;;7397600;19;20301;-80
2022/02/16 02:23:00;;;;;;;1.80;1.30;;;5.30;99.90;;;;;;7397341;19;21305;-80
2022/02/16 02:25:27;;;;;;;1.42;1.30;;;5.20;99.90;;;;;;7397610;19;20378;-79
2022/02/16 02:27:53;;;;;;;1.27;1.10;;;5.20;99.90;;;;;;7399903;19;20900;-81
2022/02/16 02:30:22;;;;;;;1.30;1.20;;;5.30;99.90;;;;;;7402077;19;20336;-79
2022/02/16 02:33:03;;;;;;;1.45;1.33;;;5.20;99.90;;;;;;7294154;19;2004459;-81
2022/02/16 02:35:30;;;;;;;1.10;1.10;;;5.30;99.90;;;;;;7397813;19;20766;-80
2022/02/16 02:37:56;;;;;;;1.13;1.02;;;5.30;99.90;;;;;;7392820;19;20329;-82
2022/02/16 02:40:22;;;;;;;1.55;1.38;;;5.30;99.90;;;;;;7384700;19;20324;-80
2022/02/16 02:42:50;;;;;;;1.13;1.10;;;5.20;99.90;;;;;;7395713;19;20369;-81
2022/02/16 02:45:17;;;;;;;2.75;1.30;;;5.20;99.90;;;;;;7393593;19;20918;-81
2022/02/16 02:47:43;;;;;;;0.98;0.98;;;5.30;99.90;;;;;;7400220;19;20317;-80
2022/02/16 02:50:45;;;;;;;1.40;1.30;;;5.20;99.90;;;;;;7263067;19;2004421;-80
2022/02/16 03:37:31;;;;;;;2.30;1.38;;;5.00;99.90;;;;;;7421385;19;20388;-78
2022/02/16 03:39:57;;;;;;;1.40;1.27;;;4.90;99.90;;;;;;7397141;19;20359;-78
2022/02/16 03:42:23;;;;;;;1.20;1.20;;;4.90;99.90;;;;;;7418751;19;20321;-79
2022/02/16 03:44:49;;;;;;;1.30;1.20;;;4.90;99.90;;;;;;7421924;19;20317;-78
2022/02/16 03:47:18;;;;;;;1.38;1.27;;;4.80;99.90;;;;;;7421805;19;20344;-79
2022/02/16 03:49:44;;;;;;;1.30;1.20;;;4.80;99.90;;;;;;7419068;19;20392;-79
2022/02/16 03:52:09;;;;;;;1.90;1.40;;;4.80;99.90;;;;;;7420595;19;20324;-79
2022/02/16 03:54:35;;;;;;;1.48;1.38;;;4.70;99.90;;;;;;7419150;19;20344;-78
2022/02/16 03:57:03;;;;;;;1.65;1.27;;;4.80;99.90;;;;;;7419951;19;20348;-78
2022/02/16 03:59:29;;;;;;;1.35;1.23;;;4.70;99.90;;;;;;7418083;19;20384;-78
2022/02/16 04:02:16;;;;;;;1.70;1.27;;;4.80;99.90;;;;;;7315776;19;2004071;-77
2022/02/16 04:04:48;;;;;;;1.23;1.13;;;4.80;99.90;;;;;;7405277;19;20349;-79
2022/02/16 04:07:14;;;;;;;1.20;1.10;;;4.70;99.90;;;;;;7416492;19;20362;-79
2022/02/16 04:09:41;;;;;;;1.45;1.20;;;4.70;99.90;;;;;;7415917;19;20337;-78
2022/02/16 04:12:10;;;;;;;1.30;1.20;;;4.80;99.90;;;;;;7417605;19;20330;-78
2022/02/16 04:14:36;;;;;;;2.60;1.27;;;4.80;99.90;;;;;;7415764;19;20340;-78
2022/02/16 04:17:01;;;;;;;1.48;1.13;;;4.80;99.90;;;;;;7414072;19;20354;-78
2022/02/16 04:19:28;;;;;;;1.10;1.10;;;4.70;99.90;;;;;;7416758;19;20336;-78
2022/02/16 04:21:53;;;;;;;1.23;1.13;;;4.80;99.90;;;;;;7413809;19;20357;-79
2022/02/16 04:24:20;;;;;;;1.23;1.20;;;4.70;99.90;;;;;;7416126;19;20324;-78
2022/02/16 04:26:46;;;;;;;1.42;1.10;;;4.90;99.90;;;;;;7417914;19;20349;-79
2022/02/16 04:29:13;;;;;;;1.13;1.13;;;4.80;99.90;;;;;;7414273;19;20336;-77
2022/02/16 04:31:41;;;;;;;1.57;1.20;;;4.90;99.90;;;;;;7418945;19;20333;-78
2022/02/16 04:34:07;;;;;;;1.23;1.20;;;4.80;99.90;;;;;;7417595;19;20341;-78
2022/02/16 04:36:33;;;;;;;1.00;1.00;;;4.80;99.90;;;;;;7415229;19;20345;-78
2022/02/16 04:39:02;;;;;;;1.52;1.20;;;5.00;99.90;;;;;;7418480;19;20340;-78
2022/02/16 04:41:31;;;;;;;3.60;1.30;;;4.90;99.90;;;;;;7417961;19;20325;-79
2022/02/16 04:44:00;;;;;;;2.03;1.20;;;4.90;99.90;;;;;;7416898;19;20347;-79
2022/02/16 04:46:26;;;;;;;1.57;1.17;;;5.00;99.90;;;;;;7405978;19;20802;-79
2022/02/16 04:48:52;;;;;;;1.35;1.25;;;5.00;99.90;;;;;;7416713;19;20427;-78
2022/02/16 04:51:17;;;;;;;1.48;1.33;;;5.00;99.90;;;;;;7393300;19;20345;-78
2022/02/16 04:53:43;;;;;;;1.40;1.30;;;5.10;99.90;;;;;;7416910;19;20351;-79
2022/02/16 04:56:09;;;;;;;1.30;1.20;;;5.00;99.90;;;;;;7399265;19;20328;-77
2022/02/16 04:58:37;;;;;;;1.00;1.00;;;5.10;99.90;;;;;;7414722;19;20316;-78
2022/02/16 05:01:03;;;;;;;1.25;1.15;;;5.10;99.90;;;;;;7415374;19;20311;-79
2022/02/16 05:03:31;;;;;;;1.37;1.17;;;5.10;99.90;;;;;;7413849;19;20344;-79
2022/02/16 05:05:58;;;;;;;1.10;1.05;;;5.30;99.90;;;;;;7417335;19;20360;-78
2022/02/16 05:08:25;;;;;;;1.42;1.33;;;5.30;99.90;;;;;;7417563;19;20392;-79
2022/02/16 05:10:51;;;;;;;1.25;1.20;;;5.30;99.90;;;;;;7416301;19;20367;-79
2022/02/16 05:13:26;;;;;;;1.13;1.08;;;5.20;99.90;;;;;;7417224;19;20333;-78
2022/02/16 05:15:52;;;;;;;1.15;1.05;;;5.20;99.90;;;;;;7416783;19;20336;-78
2022/02/16 05:18:19;;;;;;;1.30;1.10;;;5.10;99.90;;;;;;7415942;19;20330;-78
2022/02/16 05:20:50;;;;;;;1.30;1.20;;;5.00;99.90;;;;;;7417755;19;20329;-79
2022/02/16 05:23:15;;;;;;;1.42;1.27;;;5.20;99.90;;;;;;7414840;19;20374;-78
2022/02/16 05:25:43;;;;;;;1.20;1.10;;;5.00;99.90;;;;;;7420036;19;20337;-79
2022/02/16 05:28:12;;;;;;;1.25;1.17;;;5.10;99.90;;;;;;7425361;19;20324;-78
2022/02/16 05:30:38;;;;;;;1.50;1.20;;;5.10;99.90;;;;;;7422450;19;20344;-79
2022/02/16 05:33:04;;;;;;;1.30;1.20;;;5.00;99.90;;;;;;7423617;19;20328;-78
2022/02/16 05:35:30;;;;;;;1.02;1.02;;;5.20;99.90;;;;;;7424385;19;20413;-79
2022/02/16 05:37:56;;;;;;;1.08;1.00;;;5.20;99.90;;;;;;7423952;19;20345;-78
2022/02/16 05:40:24;;;;;;;1.15;1.15;;;5.10;99.90;;;;;;7418722;19;20344;-79
2022/02/16 05:42:49;;;;;;;1.10;1.10;;;5.10;99.90;;;;;;7421573;19;20336;-78
2022/02/16 05:45:15;;;;;;;1.25;1.15;;;4.90;99.90;;;;;;7422705;19;20324;-78
2022/02/16 05:47:41;;;;;;;0.95;0.95;;;5.00;99.90;;;;;;7424531;19;20309;-78
2022/02/16 06:12:31;;;;;;;1.33;1.23;;;5.10;99.90;;;;;;7409622;19;20407;-80
2022/02/16 06:15:00;;;;;;;1.00;1.00;;;5.10;99.90;;;;;;7383979;19;20357;-79
2022/02/16 06:17:26;;;;;;;1.50;1.30;;;5.00;99.90;;;;;;7387944;19;20345;-80
2022/02/16 06:19:54;;;;;;;1.42;1.33;;;5.20;99.90;;;;;;7383037;19;20919;-80
2022/02/16 06:22:20;;;;;;;1.10;1.10;;;5.30;99.90;;;;;;7360239;19;20332;-79
2022/02/16 06:24:48;;;;;;;1.60;1.10;;;5.40;99.90;;;;;;7393408;19;20324;-80
2022/02/16 06:27:15;;;;;;;1.38;0.95;;;5.30;99.90;;;;;;7384096;19;20328;-80
2022/02/16 06:29:41;;;;;;;3.75;1.33;;;5.50;99.90;;;;;;7383860;19;20332;-80
2022/02/16 06:32:26;;;;;;;1.13;1.10;;;5.30;99.90;;;;;;7287166;19;2004379;-80
2022/02/16 06:34:56;;;;;;;1.00;1.00;;;5.40;99.90;;;;;;7388697;19;20336;-79
2022/02/16 06:37:25;;;;;;;1.33;1.23;;;5.30;99.90;;;;;;7395604;19;20330;-80
2022/02/16 06:39:52;;;;;;;1.35;1.25;;;5.30;99.90;;;;;;7382383;19;20325;-79
2022/02/16 06:42:23;;;;;;;1.30;1.20;;;5.40;99.90;;;;;;7395062;19;20359;-80
2022/02/16 06:44:50;;;;;;;1.15;1.13;;;5.40;99.90;;;;;;7389266;19;20345;-79
2022/02/16 06:47:19;;;;;;;1.42;1.33;;;5.40;99.90;;;;;;7386240;19;20392;-79
2022/02/16 06:49:48;;;;;;;0.90;0.90;;;5.50;99.90;;;;;;7385594;19;20880;-79
2022/02/16 06:52:27;;;;;;;2.67;1.15;;;5.30;99.90;;;;;;7345238;19;20396;-80
2022/02/16 06:54:57;;;;;;;1.13;1.10;;;5.40;99.90;;;;;;7383777;19;20341;-80
2022/02/16 06:57:26;;;;;;;1.17;1.10;;;5.50;99.90;;;;;;7386214;19;20324;-79
2022/02/16 07:00:00;;;;;;;2.17;1.30;;;5.40;99.90;;;;;;7366080;19;20706;-80
2022/02/16 07:02:29;;;;;;;0.97;0.97;;;5.40;99.90;;;;;;7378429;19;20343;-80
2022/02/16 07:05:00;;;;;;;1.35;1.25;;;5.50;99.90;;;;;;7264374;19;2004367;-79
2022/02/16 07:07:34;;;;;;;1.70;1.60;;;5.50;99.90;;;;;;7367044;19;20317;-79
2022/02/16 07:10:05;;;;;;;1.05;1.02;;;5.50;99.90;;;;;;7328541;19;20352;-80
2022/02/16 07:12:33;;;;;;;2.20;1.13;;;5.60;99.90;;;;;;7390754;19;20301;-79
2022/02/16 07:15:38;;;;;;;1.10;1.00;;;5.60;99.90;;;;;;7382418;19;20317;-80
2022/02/16 07:18:22;;;;;;;1.08;1.08;;;5.60;99.90;;;;;;7395400;19;20331;-80
2022/02/16 07:21:02;;;;;;;1.33;1.10;;;5.70;99.90;;;;;;7397528;19;20404;-79
2022/02/16 07:23:40;;;;;;;1.23;1.13;;;5.80;99.90;;;;;;7394396;19;20343;-80
2022/02/16 07:33:12;;;;;;;1.45;1.10;;;5.90;99.90;;;;;;7425198;19;20346;-81
2022/02/16 07:36:12;;;;;;;2.57;2.27;;;5.90;99.90;;;;;;7417736;19;20366;-80
2022/02/16 07:39:39;;;;;;;1.40;1.30;;;6.00;99.90;;;;;;7421469;19;20420;-80
2022/02/16 07:42:45;;;;;;;1.20;1.10;;;6.00;99.90;;;;;;7085167;19;2004246;-80
2022/02/16 07:45:44;;;;;;;1.63;1.30;;;6.00;99.90;;;;;;7316204;19;2004467;-80
2022/02/16 07:48:23;;;;;;;1.17;1.17;;;6.00;99.90;;;;;;7368110;19;20355;-80
2022/02/16 07:51:00;;;;;;;1.38;1.20;;;6.00;99.90;;;;;;7378104;19;20325;-80
2022/02/16 07:53:46;;;;;;;1.40;1.10;;;6.10;99.90;;;;;;7312224;19;2004407;-80
2022/02/16 07:56:47;;;;;;;1.40;1.20;;;6.10;99.90;;;;;;7215932;19;2004567;-80
2022/02/16 07:59:32;;;;;;;1.30;1.20;;;6.10;99.90;;;;;;7377672;19;20329;-79
2022/02/16 08:02:11;;;;;;;2.57;1.27;;;6.40;99.90;;;;;;7376904;19;20788;-80
2022/02/16 08:04:44;;;;;;;1.38;1.27;;;6.20;99.90;;;;;;7377778;19;20393;-81
2022/02/16 08:07:29;;;;;;;1.33;1.20;;;6.30;99.90;;;;;;7398246;19;20320;-80
2022/02/16 08:10:00;;;;;;;1.60;1.10;;;6.30;99.90;;;;;;7419815;19;20325;-79
2022/02/16 08:12:36;;;;;;;1.30;1.20;;;6.30;99.90;;;;;;7357733;19;20322;-80
2022/02/16 08:15:16;;;;;;;1.27;1.23;;;6.30;99.90;;;;;;7362484;19;20308;-79
2022/02/16 08:17:55;;;;;;;1.10;1.10;;;6.40;99.90;;;;;;7415009;19;20357;-79
2022/02/16 08:20:47;;;;;;;1.92;1.55;;;6.20;99.90;;;;;;7296816;19;2004560;-79
2022/02/16 08:26:19;;;;;;;1.07;1.07;;;6.50;99.90;;;;;;7384064;19;20328;-79
2022/02/16 08:28:45;;;;;;;3.83;2.60;;;6.60;99.90;;;;;;7387965;19;20320;-78
2022/02/16 08:31:14;;;;;;;1.35;1.25;;;6.50;99.90;;;;;;7387641;19;20317;-78
2022/02/16 08:33:58;;;;;;;1.23;1.15;;;6.60;99.90;;;;;;7395754;19;20317;-79
2022/02/16 08:42:45;;;;;;;1.60;1.50;;;6.60;99.90;;;;;;7399533;19;20397;-79
2022/02/16 08:45:12;;;;;;;1.13;1.10;;;6.50;99.90;;;;;;7410648;19;20336;-78
2022/02/16 08:47:38;;;;;;;1.30;1.20;;;6.60;99.90;;;;;;7394419;19;20313;-79
2022/02/16 08:50:07;;;;;;;1.75;1.30;;;6.60;99.90;;;;;;7416985;19;20330;-79
2022/02/16 08:52:38;;;;;;;1.40;1.30;;;6.60;99.90;;;;;;7397169;19;20369;-81
2022/02/16 08:55:08;;;;;;;1.13;1.02;;;6.70;99.90;;;;;;7425916;19;20365;-80
2022/02/16 08:57:37;;;;;;;1.50;1.40;;;6.70;99.90;;;;;;7418791;19;20347;-80
2022/02/16 09:00:08;;;;;;;1.47;1.10;;;6.90;99.90;;;;;;7386069;19;20346;-79
2022/02/16 09:02:42;;;;;;;1.95;1.10;;;6.80;99.90;;;;;;7286120;19;2007288;-80
2022/02/16 09:05:08;;;;;;;0.90;0.90;;;6.80;99.90;;;;;;7419446;19;20300;-80
2022/02/16 09:07:33;;;;;;;1.60;1.10;;;6.80;99.90;;;;;;7413584;19;20332;-80
2022/02/16 09:10:04;;;;;;;1.70;1.20;;;6.80;99.90;;;;;;7415501;19;20292;-80
2022/02/16 09:12:30;;;;;;;1.25;1.20;;;6.80;99.90;;;;;;7415471;19;20315;-79
2022/02/16 09:14:56;;;;;;;2.67;1.77;;;6.90;99.90;;;;;;7420255;19;20340;-80
2022/02/16 09:17:24;;;;;;;1.60;1.20;;;7.00;99.90;;;;;;7410099;19;20312;-78
2022/02/16 09:19:53;;;;;;;1.52;1.40;;;7.00;99.90;;;;;;7414333;19;20333;-79
2022/02/16 09:22:20;;;;;;;1.20;1.10;;;7.00;99.90;;;;;;7411667;19;20332;-80
2022/02/16 09:24:46;;;;;;;1.70;1.20;;;7.10;99.90;;;;;;7412441;19;20317;-80
2022/02/16 09:27:13;;;;;;;1.20;1.10;;;7.00;99.90;;;;;;7414282;19;20340;-80
2022/02/16 09:29:39;;;;;;;1.00;1.00;;;7.10;99.90;;;;;;7411515;19;20327;-79
2022/02/16 09:32:15;;;;;;;1.00;1.00;;;7.10;99.90;;;;;;7417384;19;20304;-82
2022/02/16 09:40:55;;;;;;;1.27;1.05;;;7.10;99.90;;;;;;7381762;19;20309;-80
2022/02/16 09:43:27;;;;;;;1.00;1.00;;;7.10;99.90;;;;;;7398199;19;20338;-81
2022/02/16 09:45:55;;;;;;;1.20;1.15;;;7.00;99.90;;;;;;7417980;19;20340;-78
2022/02/16 09:48:22;;;;;;;1.50;1.03;;;7.10;99.90;;;;;;7414550;19;20347;-78
2022/02/16 09:50:48;;;;;;;1.40;1.30;;;7.30;99.90;;;;;;7414267;19;20321;-79
2022/02/16 09:53:14;;;;;;;2.70;2.00;;;7.10;99.90;;;;;;7413403;19;20325;-79
2022/02/16 09:55:40;;;;;;;2.50;1.83;;;7.00;99.90;;;;;;7417438;19;20334;-79
2022/02/16 09:58:06;;;;;;;1.00;1.00;;;7.20;99.90;;;;;;7403242;19;21365;-78
2022/02/16 10:00:31;;;;;;;1.02;0.95;;;7.20;99.90;;;;;;7376657;19;20341;-78
2022/02/16 10:02:57;;;;;;;1.20;1.10;;;7.30;99.90;;;;;;7398967;19;20340;-79
2022/02/16 10:05:26;;;;;;;1.20;1.10;;;7.30;99.90;;;;;;7397654;19;20324;-78
2022/02/16 10:07:52;;;;;;;1.20;1.10;;;7.30;99.90;;;;;;7398144;19;20341;-78
2022/02/16 10:10:23;;;;;;;1.20;1.10;;;7.30;99.90;;;;;;7393646;19;20313;-78
2022/02/16 10:12:51;;;;;;;3.35;1.20;;;7.30;99.90;;;;;;7402980;19;20377;-78
2022/02/16 10:15:22;;;;;;;1.27;1.17;;;7.40;99.90;;;;;;7396659;19;20424;-78
2022/02/16 10:17:48;;;;;;;1.00;1.00;;;7.40;99.90;;;;;;7388417;19;20888;-77
2022/02/16 10:20:17;;;;;;;1.20;1.10;;;7.40;99.90;;;;;;7394109;19;20325;-78
2022/02/16 10:22:44;;;;;;;1.00;1.00;;;7.50;99.90;;;;;;7384870;19;20359;-78
2022/02/16 10:25:19;;;;;;;1.00;1.00;;;7.50;99.90;;;;;;7386386;19;20660;-79
2022/02/16 10:28:08;;;;;;;1.00;1.00;;;7.60;99.90;;;;;;7388750;19;20357;-78
2022/02/16 10:30:35;;;;;;;1.23;1.13;;;7.60;99.90;;;;;;7388075;19;20309;-78
2022/02/16 10:33:25;;;;;;;2.05;1.25;;;7.70;99.90;;;;;;7390802;19;20356;-79
2022/02/16 10:36:14;;;;;;;1.20;1.20;;;7.80;99.90;;;;;;7390181;19;20349;-79
2022/02/16 10:39:00;;;;;;;1.10;1.10;;;8.00;99.90;;;;;;7287445;19;2004445;-79
2022/02/16 10:41:27;;;;;;;1.40;1.10;;;8.20;99.90;;;;;;7281416;19;2005573;-78
2022/02/16 10:43:53;;;;;;;2.22;1.38;;;8.20;99.90;;;;;;7381890;19;20382;-79
2022/02/16 10:46:29;;;;;;;1.00;1.00;;;8.10;99.90;;;;;;7381134;19;20773;-78
2022/02/16 10:49:14;;;;;;;0.95;0.95;;;8.10;99.90;;;;;;7377345;19;20348;-77
2022/02/16 10:51:41;;;;;;;1.13;1.02;;;8.10;99.90;;;;;;7380959;19;20344;-79
2022/02/16 10:54:14;;;;;;;1.00;1.00;;;8.10;99.90;;;;;;7400123;19;20372;-78
2022/02/16 10:56:41;;;;;;;1.17;1.10;;;8.10;99.90;;;;;;7405766;19;20316;-79
2022/02/16 10:59:07;;;;;;;12.85;11.38;;;8.10;99.90;;;;;;7378749;19;20313;-78
2022/02/16 11:01:33;;;;;;;71.38;51.78;;;8.10;99.90;;;;;;7394982;19;20344;-78
2022/02/16 11:03:59;;;;;;;1.60;1.30;;;8.10;99.90;;;;;;7397068;19;20407;-79
2022/02/16 11:06:25;;;;;;;2.78;2.58;;;8.10;99.90;;;;;;7394907;19;20336;-80
2022/02/16 11:08:50;;;;;;;1.40;1.30;;;8.20;99.90;;;;;;7406321;19;20348;-79
2022/02/16 11:11:16;;;;;;;1.20;1.10;;;8.20;99.90;;;;;;7389376;19;20332;-79
2022/02/16 11:13:42;;;;;;;1.98;1.20;;;8.20;99.90;;;;;;7394218;19;20381;-79
2022/02/16 11:16:08;;;;;;;7.97;7.20;;;8.30;99.90;;;;;;7382590;19;20356;-77
2022/02/16 11:18:45;;;;;;;2.05;1.90;;;8.30;99.90;;;;;;7381155;19;20325;-78
2022/02/16 11:21:18;;;;;;;9.40;6.35;;;8.30;99.90;;;;;;7278708;19;2008682;-79
2022/02/16 11:23:49;;;;;;;10.05;8.75;;;8.20;99.90;;;;;;7379592;19;20333;-78
2022/02/16 11:26:41;;;;;;;1.00;1.00;;;8.10;99.90;;;;;;7383579;19;20385;-80
2022/02/16 11:29:25;;;;;;;1.30;1.20;;;8.20;99.90;;;;;;7282368;19;2004786;-79
2022/02/16 11:31:51;;;;;;;2.70;2.30;;;8.20;99.90;;;;;;7285605;19;2017546;-79
2022/02/16 11:34:22;;;;;;;4.18;2.50;;;8.20;99.90;;;;;;7389708;19;20388;-79
2022/02/16 11:36:56;;;;;;;5.50;4.30;;;8.20;99.90;;;;;;5895896;19;10000997;-78
2022/02/16 11:40:01;;;;;;;1.02;1.02;;;8.10;99.90;;;;;;7421128;19;20391;-80
2022/02/16 11:42:46;;;;;;;1.40;1.30;;;8.10;99.90;;;;;;7317797;19;2004403;-78
2022/02/16 11:45:46;;;;;;;1.20;1.20;;;8.20;99.90;;;;;;7314536;19;2004576;-78
2022/02/16 11:48:50;;;;;;;2.20;1.20;;;8.30;99.90;;;;;;7327689;19;2004407;-78
2022/02/16 11:51:36;;;;;;;0.93;0.93;;;8.30;99.90;;;;;;7325560;19;2004440;-79
2022/02/16 11:54:45;;;;;;;1.35;1.25;;;8.30;99.90;;;;;;7336992;19;2004373;-79
2022/02/16 11:57:30;;;;;;;1.60;1.50;;;8.50;99.90;;;;;;7233431;19;2004397;-80
2022/02/16 12:00:15;;;;;;;1.10;1.10;;;8.60;99.90;;;;;;7335314;19;2004456;-78
2022/02/16 12:03:05;;;;;;;2.25;1.42;;;8.60;99.90;;;;;;7449017;19;20352;-83
2022/02/16 12:06:08;;;;;;;2.08;1.20;;;8.70;99.90;;;;;;7342992;19;2004414;-78
2022/02/16 12:08:58;;;;;;;1.08;1.08;;;8.70;99.90;;;;;;7319627;19;2004438;-80
2022/02/16 12:11:43;;;;;;;1.30;1.20;;;8.60;99.90;;;;;;7348467;19;2004473;-80
2022/02/16 12:14:28;;;;;;;1.05;1.00;;;8.70;99.90;;;;;;7451032;19;20348;-80
2022/02/16 12:17:13;;;;;;;1.40;1.30;;;8.60;99.90;;;;;;7434871;19;21029;-80
2022/02/16 12:20:28;;;;;;;1.63;1.40;;;8.40;99.90;;;;;;7345914;19;2004363;-81
2022/02/16 12:23:13;;;;;;;1.30;1.30;;;8.50;99.90;;;;;;7226756;19;2004308;-80
2022/02/16 12:26:12;;;;;;;1.30;1.20;;;8.30;99.90;;;;;;7449526;19;20327;-79
2022/02/16 12:29:01;;;;;;;1.15;1.15;;;8.30;99.90;;;;;;7349947;19;2004447;-80
2022/02/16 12:32:00;;;;;;;1.30;1.20;;;8.30;99.90;;;;;;7346063;19;2004451;-83
2022/02/16 12:35:00;;;;;;;1.75;1.65;;;8.20;99.90;;;;;;7099114;19;2004310;-81
2022/02/16 12:37:48;;;;;;;2.38;1.33;;;8.10;99.90;;;;;;7451300;19;20359;-82
2022/02/16 12:40:33;;;;;;;1.23;1.23;;;7.90;99.90;;;;;;7331859;19;2004543;-81
2022/02/16 12:43:27;;;;;;;3.00;2.78;;;7.90;99.90;;;;;;7316759;19;2004630;-81
2022/02/16 12:46:22;;;;;;;1.30;1.20;;;7.70;99.90;;;;;;7285549;19;2004283;-81
2022/02/16 12:49:11;;;;;;;1.40;1.30;;;7.80;99.90;;;;;;7340670;19;2004535;-80
2022/02/16 12:52:00;;;;;;;1.35;1.30;;;7.90;99.90;;;;;;6015606;19;10000959;-80
2022/02/16 12:54:52;;;;;;;1.30;1.20;;;8.00;99.90;;;;;;7269506;19;2004414;-81
2022/02/16 12:57:53;;;;;;;13.60;7.83;;;8.10;99.90;;;;;;7296357;19;20352;-79
2022/02/16 13:00:58;;;;;;;1.53;1.43;;;8.00;99.90;;;;;;7188669;19;2004543;-81
2022/02/16 13:03:43;;;;;;;1.40;1.33;;;7.90;99.90;;;;;;7403867;19;20335;-79
2022/02/16 13:06:38;;;;;;;4.55;4.15;;;8.00;99.90;;;;;;7362148;19;20368;-80
2022/02/16 13:09:26;;;;;;;3.35;1.95;;;7.90;99.90;;;;;;7308450;19;2004449;-79
2022/02/16 13:12:46;;;;;;;1.30;1.20;;;7.90;99.90;;;;;;7383426;19;20360;-79
2022/02/16 13:16:00;;;;;;;1.03;1.03;;;7.90;99.90;;;;;;7293718;19;2004322;-81
2022/02/16 13:18:59;;;;;;;1.50;1.40;;;8.10;99.90;;;;;;7210701;19;2004580;-81
2022/02/16 13:21:46;;;;;;;1.00;1.00;;;8.10;99.90;;;;;;7294962;19;2004445;-81
2022/02/16 13:24:30;;;;;;;1.30;1.20;;;8.40;99.90;;;;;;7351434;19;20321;-81
2022/02/16 13:27:17;;;;;;;1.40;1.30;;;8.40;99.90;;;;;;7400866;19;20895;-82
2022/02/16 13:30:05;;;;;;;1.40;1.30;;;8.50;99.90;;;;;;7426525;19;20360;-80
2022/02/16 13:33:35;;;;;;;3.80;3.40;;;8.30;99.90;;;;;;7415211;19;20345;-79
2022/02/16 13:36:26;;;;;;;1.33;1.23;;;8.20;99.90;;;;;;7317626;19;2004479;-80
2022/02/16 13:39:19;;;;;;;1.60;1.50;;;8.20;99.90;;;;;;7419366;19;20328;-80
2022/02/16 13:42:04;;;;;;;1.17;1.17;;;8.20;99.90;;;;;;7316484;19;2004389;-80
2022/02/16 13:44:52;;;;;;;1.60;1.50;;;8.20;99.90;;;;;;7410772;19;20361;-80
2022/02/16 13:47:44;;;;;;;1.03;1.03;;;8.10;99.90;;;;;;7317165;19;2004413;-80
2022/02/16 13:50:56;;;;;;;1.00;1.00;;;8.00;99.90;;;;;;7303297;19;2004263;-81
2022/02/16 13:53:57;;;;;;;0.98;0.98;;;7.90;99.90;;;;;;7303675;19;2004281;-81
2022/02/16 13:56:52;;;;;;;0.90;0.90;;;7.90;99.90;;;;;;7399228;19;20387;-80
2022/02/16 13:59:53;;;;;;;0.80;0.80;;;7.90;99.90;;;;;;7402436;19;20351;-80
2022/02/16 14:02:40;;;;;;;1.30;1.20;;;7.80;99.90;;;;;;7313790;19;2004446;-82
2022/02/16 14:05:26;;;;;;;2.47;2.15;;;7.90;99.90;;;;;;7417286;19;20313;-80
2022/02/16 14:08:13;;;;;;;1.98;1.25;;;7.90;99.90;;;;;;7297863;19;2004417;-81
2022/02/16 14:10:57;;;;;;;1.00;1.00;;;7.90;99.90;;;;;;7243078;19;2004593;-81
2022/02/16 14:13:43;;;;;;;1.02;1.02;;;7.90;99.90;;;;;;7396723;19;20354;-80
2022/02/16 14:16:31;;;;;;;1.00;1.00;;;8.00;99.90;;;;;;7421727;19;20313;-81
2022/02/16 14:19:24;;;;;;;0.97;0.97;;;8.10;99.90;;;;;;7294268;19;2004254;-80
2022/02/16 14:22:11;;;;;;;0.90;0.90;;;8.10;99.90;;;;;;7310719;19;2004061;-80
2022/02/16 14:24:55;;;;;;;0.93;0.93;;;8.00;99.90;;;;;;7312736;19;2004403;-80
2022/02/16 14:27:40;;;;;;;1.23;1.13;;;8.10;99.90;;;;;;7315228;19;2004497;-79
2022/02/16 14:30:27;;;;;;;0.98;0.98;;;8.00;99.90;;;;;;7413670;19;20320;-81
2022/02/16 14:33:11;;;;;;;1.05;0.95;;;8.10;99.90;;;;;;7419102;19;20369;-80
2022/02/16 14:35:56;;;;;;;0.80;0.80;;;8.10;99.90;;;;;;7314202;19;2004399;-80
2022/02/16 14:38:40;;;;;;;0.90;0.90;;;8.10;99.90;;;;;;7310260;19;2004435;-80
2022/02/16 14:41:25;;;;;;;1.40;1.30;;;8.00;99.90;;;;;;7412604;19;20321;-79
2022/02/16 14:44:13;;;;;;;1.60;1.50;;;8.10;99.90;;;;;;7401749;19;20722;-80
2022/02/16 14:46:59;;;;;;;1.33;1.23;;;8.10;99.90;;;;;;7398749;19;20374;-81
2022/02/16 14:49:44;;;;;;;0.73;0.73;;;8.10;99.90;;;;;;7297663;19;2004446;-79
2022/02/16 14:52:28;;;;;;;1.15;0.90;;;8.10;99.90;;;;;;7296809;19;2004418;-79
2022/02/16 14:55:14;;;;;;;1.20;0.90;;;8.20;99.90;;;;;;7400748;19;20364;-81
2022/02/16 14:57:59;;;;;;;0.90;0.90;;;8.20;99.90;;;;;;7290981;19;2004507;-79
2022/02/16 15:00:43;;;;;;;0.63;0.63;;;8.20;99.90;;;;;;7301741;19;2004371;-78
2022/02/16 15:03:29;;;;;;;0.80;0.80;;;8.20;99.90;;;;;;7276301;19;2004369;-79
2022/02/16 15:06:14;;;;;;;0.70;0.70;;;8.20;99.90;;;;;;7398739;19;20332;-80
